createdAt,value
2022-09-27T00:00:50.721Z,90.89
2022-09-27T00:10:37.077Z,90.69
2022-09-27T00:15:39.032Z,90.90
2022-09-27T00:18:39.916Z,90.73
2022-09-27T00:24:28.315Z,90.61
2022-09-27T00:27:18.600Z,90.72
2022-09-27T00:30:04.115Z,90.31
2022-09-27T00:33:17.797Z,90.73
2022-09-27T00:35:49.659Z,91.07
2022-09-27T00:38:40.460Z,90.59
2022-09-27T00:44:06.851Z,90.75
2022-09-27T00:49:52.760Z,90.53
2022-09-27T00:52:51.200Z,90.54
2022-09-27T00:55:38.388Z,90.77
2022-09-27T00:58:14.616Z,91.00
2022-09-27T01:00:50.242Z,90.78
2022-09-27T01:03:38.879Z,90.75
2022-09-27T01:06:33.925Z,90.73
2022-09-27T01:09:22.571Z,90.95
2022-09-27T01:18:36.708Z,90.49
2022-09-27T01:25:22.137Z,90.23
2022-09-27T01:28:48.055Z,90.22
2022-09-27T01:31:43.027Z,90.80
2022-09-27T01:41:11.694Z,91.97
2022-09-27T01:43:49.072Z,91.86
2022-09-27T01:46:32.655Z,91.38
2022-09-27T01:49:13.724Z,91.17
2022-09-27T01:51:50.116Z,91.76
2022-09-27T01:54:25.741Z,91.42
2022-09-27T01:57:17.140Z,91.19
2022-09-27T02:00:07.827Z,91.26
2022-09-27T02:03:02.922Z,91.10
2022-09-27T02:12:16.384Z,90.17
2022-09-27T02:15:00.621Z,89.84
2022-09-27T02:17:35.039Z,90.04
2022-09-27T02:20:38.275Z,90.54
2022-09-27T02:23:24.736Z,90.38
2022-09-27T02:26:08.313Z,90.62
2022-09-27T02:29:15.811Z,90.35
2022-09-27T02:32:24.835Z,90.66
2022-09-27T02:35:07.492Z,90.55
2022-09-27T02:38:05.246Z,90.29
2022-09-27T02:40:52.061Z,90.62
2022-09-27T02:43:48.087Z,90.32
2022-09-27T02:46:39.001Z,90.37
2022-09-27T02:49:46.799Z,90.39
2022-09-27T02:53:09.419Z,90.74
2022-09-27T02:56:12.828Z,90.32
2022-09-27T02:59:04.938Z,90.39
2022-09-27T03:01:55.269Z,90.51
2022-09-27T03:05:13.662Z,90.59
2022-09-27T03:08:10.008Z,90.20
2022-09-27T03:14:25.013Z,89.84
2022-09-27T03:17:20.508Z,89.63
2022-09-27T03:19:55.507Z,89.41
2022-09-27T03:22:25.213Z,89.20
2022-09-27T03:24:55.067Z,89.59
2022-09-27T03:27:31.096Z,89.48
2022-09-27T03:33:14.931Z,89.44
2022-09-27T03:35:51.265Z,89.58
2022-09-27T03:38:39.349Z,89.36
2022-09-27T03:41:13.078Z,89.83
2022-09-27T03:43:44.517Z,89.83
2022-09-27T03:46:57.841Z,89.93
2022-09-27T03:49:36.116Z,89.67
2022-09-27T03:52:38.972Z,89.84
2022-09-27T03:55:27.029Z,89.86
2022-09-27T04:00:55.138Z,89.47
2022-09-27T04:03:32.392Z,89.61
2022-09-27T04:06:50.162Z,89.00
2022-09-27T04:08:55.290Z,89.27
2022-09-27T04:11:36.802Z,89.32
2022-09-27T04:14:15.120Z,89.67
2022-09-27T04:17:35.707Z,89.27
2022-09-27T04:22:59.700Z,89.15
2022-09-27T04:25:27.687Z,89.29
2022-09-27T04:28:25.259Z,89.35
2022-09-27T04:30:57.702Z,89.31
2022-09-27T04:33:39.464Z,89.29
2022-09-27T04:36:22.275Z,88.95
2022-09-27T04:39:23.281Z,89.17
2022-09-27T04:49:01.637Z,89.29
2022-09-27T05:04:19.663Z,89.85
2022-09-27T05:08:02.802Z,89.61
2022-09-27T05:17:16.984Z,89.57
2022-09-27T05:19:52.745Z,89.77
2022-09-27T05:24:17.282Z,89.61
2022-09-27T05:25:39.984Z,89.93
2022-09-27T05:31:45.534Z,90.71
2022-09-27T05:34:39.073Z,90.58
2022-09-27T05:43:20.043Z,90.92
2022-09-27T05:46:22.552Z,90.74
2022-09-27T05:49:03.373Z,91.12
2022-09-27T05:52:03.146Z,91.18
2022-09-27T06:01:16.777Z,91.28
2022-09-27T06:16:59.576Z,91.81
2022-09-27T06:19:43.284Z,91.87
2022-09-27T06:23:19.263Z,91.92
2022-09-27T06:35:29.256Z,91.77
2022-09-27T06:38:23.608Z,91.90
2022-09-27T06:41:36.522Z,92.01
2022-09-27T06:44:27.128Z,92.23
2022-09-27T06:55:52.841Z,92.52
2022-09-27T06:59:17.240Z,92.23
2022-09-27T07:04:38.288Z,92.19
2022-09-27T07:10:18.771Z,92.03
2022-09-27T07:13:18.167Z,91.94
2022-09-27T07:16:09.880Z,91.88
2022-09-27T07:18:45.383Z,92.34
2022-09-27T07:21:29.384Z,92.17
2022-09-27T07:24:21.907Z,91.46
2022-09-27T07:26:59.547Z,91.88
2022-09-27T07:30:09.844Z,91.99
2022-09-27T07:33:06.587Z,91.88
2022-09-27T07:36:56.273Z,92.05
2022-09-27T07:45:09.376Z,92.42
2022-09-27T07:50:54.444Z,92.02
2022-09-27T07:56:37.866Z,92.27
2022-09-27T07:59:59.688Z,92.05
2022-09-27T08:03:36.618Z,92.03
2022-09-27T08:06:50.717Z,92.36
2022-09-27T08:09:22.584Z,92.76
2022-09-27T08:12:16.326Z,92.21
2022-09-27T08:33:33.433Z,92.40
2022-09-27T08:36:42.148Z,92.25
2022-09-27T08:39:34.715Z,91.68
2022-09-27T08:42:34.050Z,90.71
2022-09-27T08:45:19.795Z,89.86
2022-09-27T08:48:03.911Z,89.69
2022-09-27T08:50:40.189Z,89.24
2022-09-27T08:56:52.592Z,88.75
2022-09-27T09:00:21.371Z,88.25
2022-09-27T09:03:04.106Z,87.69
2022-09-27T09:05:48.446Z,86.98
2022-09-27T09:08:50.705Z,87.08
2022-09-27T09:15:27.071Z,86.17
2022-09-27T09:21:26.664Z,87.36
2022-09-27T09:28:12.282Z,85.62
2022-09-27T09:31:21.936Z,86.38
2022-09-27T09:34:13.481Z,86.33
2022-09-27T09:40:33.694Z,85.46
2022-09-27T09:43:29.591Z,85.22
2022-09-27T09:46:33.407Z,84.19
2022-09-27T09:49:25.111Z,85.23
2022-09-27T09:55:12.134Z,83.93
2022-09-27T09:58:03.504Z,83.10
2022-09-27T10:03:19.969Z,83.41
2022-09-27T10:06:13.586Z,82.04
2022-09-27T10:08:54.496Z,81.06
2022-09-27T10:15:43.092Z,81.43
2022-09-27T10:17:57.122Z,79.84
2022-09-27T10:20:44.973Z,80.60
2022-09-27T10:23:32.857Z,80.98
2022-09-27T10:26:16.956Z,81.39
2022-09-27T10:28:59.903Z,81.39
2022-09-27T10:31:48.233Z,81.95
2022-09-27T10:34:52.719Z,82.58
2022-09-27T10:40:46.128Z,83.49
2022-09-27T10:45:04.547Z,83.93
2022-09-27T10:47:16.026Z,83.17
2022-09-27T10:49:48.833Z,84.13
2022-09-27T10:55:30.970Z,82.42
2022-09-27T10:58:19.699Z,81.97
2022-09-27T11:04:09.957Z,81.14
2022-09-27T11:06:45.739Z,80.81
2022-09-27T11:10:00.176Z,79.79
2022-09-27T11:12:42.450Z,79.91
2022-09-27T11:15:43.646Z,80.22
2022-09-27T11:18:51.557Z,78.42
2022-09-27T11:22:16.353Z,79.57
2022-09-27T11:25:31.996Z,80.69
2022-09-27T11:28:47.435Z,80.56
2022-09-27T11:31:45.536Z,81.02
2022-09-27T11:38:52.194Z,80.75
2022-09-27T11:55:25.696Z,81.29
2022-09-27T11:58:22.010Z,81.31
2022-09-27T12:05:10.953Z,82.47
2022-09-27T12:11:14.099Z,81.84
2022-09-27T12:14:07.780Z,82.03
2022-09-27T12:16:50.881Z,81.76
2022-09-27T12:26:31.578Z,77.11
2022-09-27T12:29:31.978Z,77.16
2022-09-27T12:38:41.249Z,77.19
2022-09-27T12:44:21.890Z,73.91
2022-09-27T12:47:21.789Z,71.63
2022-09-27T12:54:04.143Z,77.00
2022-09-27T12:57:04.959Z,77.46
2022-09-27T13:00:17.988Z,77.58
2022-09-27T13:03:46.592Z,78.01
2022-09-27T13:07:02.199Z,77.85
2022-09-27T13:10:46.498Z,77.00
2022-09-27T13:17:21.167Z,76.13
2022-09-27T13:20:35.749Z,75.17
2022-09-27T13:27:11.826Z,76.88
2022-09-27T13:30:31.296Z,76.96
2022-09-27T13:53:15.880Z,77.15
2022-09-27T13:55:48.443Z,78.39
2022-09-27T13:59:05.420Z,78.58
2022-09-27T14:01:50.326Z,77.97
2022-09-27T14:04:40.856Z,77.79
2022-09-27T14:07:36.452Z,77.35
2022-09-27T14:10:18.623Z,77.76
2022-09-27T14:13:09.849Z,76.11
2022-09-27T14:15:49.210Z,74.97
2022-09-27T14:18:49.151Z,73.92
2022-09-27T14:21:29.048Z,74.31
2022-09-27T14:27:48.086Z,73.82
2022-09-27T14:31:14.332Z,73.77
2022-09-27T14:33:49.349Z,72.94
2022-09-27T14:36:44.058Z,73.34
2022-09-27T14:43:05.500Z,73.13
2022-09-27T14:46:13.985Z,73.49
2022-09-27T14:51:52.960Z,73.74
2022-09-27T14:54:48.407Z,74.55
2022-09-27T14:57:50.154Z,74.77
2022-09-27T15:00:34.302Z,75.04
2022-09-27T15:06:45.222Z,75.15
2022-09-27T15:09:30.989Z,74.68
2022-09-27T15:12:17.767Z,74.31
2022-09-27T15:14:54.020Z,74.65
2022-09-27T15:17:39.434Z,74.84
2022-09-27T15:20:35.308Z,75.02
2022-09-27T15:23:32.684Z,75.29
2022-09-27T15:26:46.206Z,75.30
2022-09-27T15:29:22.912Z,75.64
2022-09-27T15:32:02.781Z,76.20
2022-09-27T15:34:43.506Z,76.27
2022-09-27T15:37:50.797Z,76.59
2022-09-27T15:43:53.994Z,76.94
2022-09-27T15:49:58.849Z,77.83
2022-09-27T15:52:44.619Z,76.36
2022-09-27T15:55:26.358Z,75.71
2022-09-27T15:58:02.978Z,75.33
2022-09-27T16:00:35.541Z,75.30
2022-09-27T16:03:02.506Z,75.79
2022-09-27T16:05:29.312Z,74.73
2022-09-27T16:08:20.180Z,74.02
2022-09-27T16:10:52.061Z,74.56
2022-09-27T16:13:19.015Z,74.30
2022-09-27T16:15:48.307Z,73.52
2022-09-27T16:18:15.114Z,74.19
2022-09-27T16:20:42.144Z,73.98
2022-09-27T16:23:09.224Z,74.44
2022-09-27T16:25:36.740Z,74.80
2022-09-27T16:28:05.288Z,74.58
2022-09-27T16:30:37.030Z,74.53
2022-09-27T16:33:05.365Z,74.60
2022-09-27T16:35:32.152Z,74.67
2022-09-27T16:37:58.912Z,74.66
2022-09-27T16:40:25.959Z,74.43
2022-09-27T16:42:52.698Z,74.79
2022-09-27T16:45:22.076Z,74.76
2022-09-27T16:47:49.076Z,74.97
2022-09-27T16:50:17.632Z,74.60
2022-09-27T16:52:44.939Z,75.04
2022-09-27T16:55:11.703Z,74.92
2022-09-27T16:57:38.914Z,75.23
2022-09-27T17:00:29.946Z,74.93
2022-09-27T17:02:56.768Z,75.19
2022-09-27T17:05:37.305Z,75.68
2022-09-27T17:08:04.048Z,76.17
2022-09-27T17:10:30.988Z,76.47
2022-09-27T17:12:58.008Z,76.45
2022-09-27T17:15:28.248Z,76.70
2022-09-27T17:17:59.880Z,77.00
2022-09-27T17:20:36.370Z,77.25
2022-09-27T17:23:05.143Z,77.62
2022-09-27T17:25:33.727Z,77.37
2022-09-27T17:28:06.525Z,78.24
2022-09-27T17:30:42.308Z,78.20
2022-09-27T17:33:12.035Z,78.69
2022-09-27T17:35:43.064Z,77.97
2022-09-27T17:38:09.776Z,78.05
2022-09-27T17:40:36.786Z,78.19
2022-09-27T17:43:06.474Z,78.50
2022-09-27T17:45:37.502Z,78.31
2022-09-27T17:48:12.876Z,78.76
2022-09-27T17:50:46.014Z,78.56
2022-09-27T17:53:15.539Z,78.77
2022-09-27T17:55:52.800Z,78.60
2022-09-27T17:58:20.043Z,78.82
2022-09-27T18:00:49.026Z,78.79
2022-09-27T18:03:18.997Z,79.31
2022-09-27T18:05:49.803Z,79.61
2022-09-27T18:08:19.685Z,79.27
2022-09-27T18:10:46.582Z,79.56
2022-09-27T18:13:15.165Z,79.54
2022-09-27T18:15:54.444Z,79.82
2022-09-27T18:18:27.481Z,79.87
2022-09-27T18:21:01.456Z,79.92
2022-09-27T18:23:39.347Z,80.14
2022-09-27T18:26:11.339Z,80.00
2022-09-27T18:28:40.250Z,80.12
2022-09-27T18:31:11.493Z,80.34
2022-09-27T18:33:39.224Z,80.54
2022-09-27T18:36:11.580Z,80.83
2022-09-27T18:38:40.910Z,80.86
2022-09-27T18:41:09.344Z,81.11
2022-09-27T18:43:38.944Z,81.25
2022-09-27T18:46:30.888Z,81.07
2022-09-27T18:48:54.298Z,81.23
2022-09-27T18:51:24.146Z,81.57
2022-09-27T18:53:56.387Z,81.73
2022-09-27T18:56:25.735Z,81.83
2022-09-27T18:58:53.267Z,81.88
2022-09-27T19:01:21.494Z,81.83
2022-09-27T19:03:48.500Z,82.17
2022-09-27T19:06:20.486Z,82.49
2022-09-27T19:09:03.660Z,82.42
2022-09-27T19:11:30.947Z,82.52
2022-09-27T19:13:58.753Z,82.80
2022-09-27T19:16:31.218Z,82.72
2022-09-27T19:19:05.398Z,82.54
2022-09-27T19:24:38.372Z,82.39
2022-09-27T19:27:21.763Z,82.96
2022-09-27T19:30:01.579Z,83.17
2022-09-27T19:32:34.853Z,83.08
2022-09-27T19:35:02.119Z,83.03
2022-09-27T19:37:31.064Z,83.13
2022-09-27T19:40:04.743Z,83.05
2022-09-27T19:42:37.818Z,83.18
2022-09-27T19:45:11.787Z,83.29
2022-09-27T19:47:47.392Z,83.34
2022-09-27T19:50:29.191Z,83.45
2022-09-27T19:52:58.839Z,83.53
2022-09-27T19:55:47.849Z,83.73
2022-09-27T19:58:16.980Z,83.66
2022-09-27T20:00:47.227Z,83.61
2022-09-27T20:03:21.652Z,83.85
2022-09-27T20:05:57.065Z,84.12
2022-09-27T20:08:32.635Z,84.27
2022-09-27T20:11:52.440Z,83.92
2022-09-27T20:14:20.861Z,84.12
2022-09-27T20:16:55.743Z,84.33
2022-09-27T20:19:36.835Z,84.22
2022-09-27T20:22:08.743Z,84.41
2022-09-27T20:24:36.820Z,84.30
2022-09-27T20:27:13.852Z,84.60
2022-09-27T20:29:44.843Z,84.74
2022-09-27T20:32:28.875Z,84.62
2022-09-27T20:34:55.740Z,84.55
2022-09-27T20:37:24.090Z,84.69
2022-09-27T20:39:50.782Z,84.80
2022-09-27T20:42:25.825Z,84.50
2022-09-27T20:45:00.133Z,84.53
2022-09-27T20:51:29.758Z,84.70
2022-09-27T21:00:06.696Z,84.48
2022-09-27T21:02:36.838Z,84.99
2022-09-27T21:05:03.982Z,84.87
2022-09-27T21:07:30.608Z,84.68
2022-09-27T21:09:57.487Z,84.80
2022-09-27T21:12:24.227Z,84.44
2022-09-27T21:14:56.464Z,85.00
2022-09-27T21:17:26.415Z,85.07
2022-09-27T21:19:53.356Z,84.88
2022-09-27T21:22:26.063Z,84.97
2022-09-27T21:24:54.468Z,85.06
2022-09-27T21:27:25.530Z,85.12
2022-09-27T21:29:52.419Z,85.43
2022-09-27T21:32:19.288Z,85.47
2022-09-27T21:34:50.334Z,85.73
2022-09-27T21:37:30.891Z,85.45
2022-09-27T21:40:04.753Z,85.75
2022-09-27T21:42:39.010Z,85.59
2022-09-27T21:45:09.906Z,85.65
2022-09-27T21:47:36.658Z,85.82
2022-09-27T21:50:07.086Z,85.82
2022-09-27T21:52:35.969Z,86.10
2022-09-27T21:55:02.837Z,85.75
2022-09-27T21:57:30.437Z,86.07
2022-09-27T22:00:00.547Z,86.34
2022-09-27T22:02:27.990Z,86.27
2022-09-27T22:04:55.106Z,86.35
2022-09-27T22:07:24.208Z,86.18
2022-09-27T22:09:51.097Z,86.52
2022-09-27T22:12:18.265Z,86.41
2022-09-27T22:14:45.836Z,86.79
2022-09-27T22:17:17.662Z,86.58
2022-09-27T22:19:44.486Z,86.43
2022-09-27T22:22:11.294Z,86.60
2022-09-27T22:24:42.015Z,86.59
2022-09-27T22:27:08.794Z,86.81
2022-09-27T22:29:35.766Z,86.61
2022-09-27T22:32:02.824Z,86.78
2022-09-27T22:34:35.529Z,86.83
2022-09-27T22:37:02.352Z,86.80
2022-09-27T22:39:32.856Z,87.02
2022-09-27T22:42:05.360Z,87.07
2022-09-27T22:44:33.916Z,86.85
2022-09-27T22:47:03.278Z,87.01
2022-09-27T22:49:34.110Z,86.98
2022-09-27T22:52:12.172Z,86.76
2022-09-27T22:54:41.221Z,87.04
2022-09-27T22:57:16.980Z,87.40
2022-09-27T23:02:28.044Z,86.93
2022-09-27T23:05:12.190Z,87.20
2022-09-27T23:07:42.965Z,87.04
2022-09-27T23:10:12.159Z,87.29
2022-09-27T23:12:40.731Z,87.33
2022-09-27T23:15:09.064Z,87.22
2022-09-27T23:17:37.131Z,87.22
2022-09-27T23:20:05.409Z,87.12
2022-09-27T23:22:33.615Z,87.39
2022-09-27T23:25:00.448Z,87.15
2022-09-27T23:27:30.603Z,87.55
2022-09-27T23:30:06.459Z,87.56
2022-09-27T23:32:35.292Z,87.56
2022-09-27T23:35:07.582Z,87.53
2022-09-27T23:37:48.121Z,87.39
2022-09-27T23:40:21.977Z,87.52
2022-09-27T23:42:59.578Z,87.47
2022-09-27T23:45:34.445Z,87.64
2022-09-27T23:48:10.533Z,87.67
2022-09-27T23:50:42.701Z,87.83
2022-09-27T23:53:16.548Z,87.76
2022-09-27T23:55:47.392Z,88.00
2022-09-27T23:58:16.655Z,87.75
